Time;durP1;ratioP1;P1;durP2;ratioP2;P2;SDS_P1;SDS_P2;PMS_P1;PMS_P2;Temp;Humidity;BMP_temperature;BMP_pressure;BME280_temperature;BME280_humidity;BME280_pressure;Samples;Min_cycle;Max_cycle;Signal;HPM_P1;HPM_P2
2022/07/11 00:02:04;;;;;;;3.78;3.47;;;17.80;99.90;;;;;;4975153;28;20085;-57
2022/07/11 00:04:31;;;;;;;5.63;3.95;;;18.00;99.90;;;;;;4975006;28;20030;-58
2022/07/11 00:06:58;;;;;;;4.60;3.90;;;18.00;99.90;;;;;;4974977;28;20027;-57
2022/07/11 00:09:23;;;;;;;4.38;3.60;;;18.00;99.90;;;;;;4974130;28;20031;-55
2022/07/11 00:11:49;;;;;;;3.40;3.10;;;18.10;99.90;;;;;;4975227;28;20359;-57
2022/07/11 00:14:18;;;;;;;4.75;4.10;;;18.20;99.90;;;;;;4973582;28;20023;-55
2022/07/11 00:16:44;;;;;;;5.10;4.50;;;18.10;99.90;;;;;;4974885;28;20023;-56
2022/07/11 00:19:21;;;;;;;5.28;4.60;;;18.00;99.90;;;;;;4973747;28;20122;-56
2022/07/11 00:21:51;;;;;;;6.38;4.55;;;17.90;99.90;;;;;;4974867;28;20042;-57
2022/07/11 00:24:19;;;;;;;9.57;4.45;;;17.70;99.90;;;;;;4973472;28;20489;-57
2022/07/11 00:26:48;;;;;;;8.45;4.50;;;17.70;99.90;;;;;;4974021;28;20034;-57
2022/07/11 00:29:15;;;;;;;6.95;4.75;;;17.60;99.90;;;;;;4974081;28;20396;-56
2022/07/11 00:31:41;;;;;;;5.65;3.90;;;17.70;99.90;;;;;;4974659;28;20085;-57
2022/07/11 00:34:07;;;;;;;6.13;4.93;;;17.60;99.90;;;;;;4973287;28;20027;-57
2022/07/11 00:36:32;;;;;;;9.52;4.95;;;17.60;99.90;;;;;;4974647;28;20038;-57
2022/07/11 00:38:59;;;;;;;6.85;4.70;;;17.60;99.90;;;;;;4974587;28;20027;-55
2022/07/11 00:41:25;;;;;;;6.47;4.03;;;17.50;99.90;;;;;;4973438;28;20055;-53
2022/07/11 00:43:53;;;;;;;5.63;4.47;;;17.60;99.90;;;;;;4974208;28;20073;-55
2022/07/11 00:46:19;;;;;;;5.22;3.67;;;17.70;99.90;;;;;;4973355;28;20031;-57
2022/07/11 00:48:45;;;;;;;5.30;4.65;;;17.70;99.90;;;;;;4973209;28;20505;-57
2022/07/11 00:51:12;;;;;;;3.67;3.38;;;17.70;99.90;;;;;;4973240;28;20027;-53
2022/07/11 00:53:40;;;;;;;5.07;4.13;;;17.70;99.90;;;;;;4974407;28;20031;-54
2022/07/11 00:56:07;;;;;;;5.32;4.10;;;17.70;99.90;;;;;;4973165;28;20027;-54
2022/07/11 00:58:33;;;;;;;4.93;4.10;;;17.60;99.90;;;;;;4973278;28;20066;-57
2022/07/11 01:00:58;;;;;;;5.95;4.63;;;17.60;99.90;;;;;;4973264;28;20086;-57
2022/07/11 01:03:24;;;;;;;4.22;3.65;;;17.50;99.90;;;;;;4973094;28;20054;-51
2022/07/11 01:05:50;;;;;;;5.85;4.40;;;17.40;99.90;;;;;;4974265;28;20035;-55
2022/07/11 01:08:15;;;;;;;5.13;3.65;;;17.40;99.90;;;;;;4974590;28;20049;-59
2022/07/11 01:10:41;;;;;;;11.52;4.45;;;17.40;99.90;;;;;;4974135;28;20182;-59
2022/07/11 01:13:07;;;;;;;4.57;4.00;;;17.40;99.90;;;;;;4973263;28;20474;-59
2022/07/11 01:15:35;;;;;;;6.03;4.45;;;17.40;99.90;;;;;;4974320;28;20141;-54
2022/07/11 01:18:01;;;;;;;4.63;3.80;;;17.30;99.90;;;;;;4973763;28;20092;-59
2022/07/11 01:20:27;;;;;;;5.70;4.28;;;17.30;99.90;;;;;;4975108;28;20097;-59
2022/07/11 01:22:56;;;;;;;5.25;4.25;;;17.30;99.90;;;;;;4977999;28;20022;-57
2022/07/11 01:25:31;;;;;;;5.60;4.57;;;17.30;99.90;;;;;;4978012;28;20030;-55
2022/07/11 01:28:06;;;;;;;4.53;4.03;;;17.30;99.90;;;;;;4978237;28;20482;-56
2022/07/11 01:30:32;;;;;;;5.03;4.15;;;17.30;99.90;;;;;;4976528;28;20026;-59
2022/07/11 01:32:58;;;;;;;5.22;4.22;;;17.30;99.90;;;;;;4976426;28;20077;-59
2022/07/11 01:35:25;;;;;;;5.97;3.95;;;17.20;99.90;;;;;;4976518;28;20482;-57
2022/07/11 01:37:51;;;;;;;4.45;3.85;;;17.20;99.90;;;;;;4977701;28;20026;-52
2022/07/11 01:40:17;;;;;;;8.80;4.15;;;17.20;99.90;;;;;;4977726;28;20019;-59
2022/07/11 01:42:42;;;;;;;4.45;3.53;;;17.20;99.90;;;;;;4978003;28;20051;-59
2022/07/11 01:45:12;;;;;;;3.83;3.53;;;17.20;99.90;;;;;;4976314;28;20061;-57
2022/07/11 01:47:39;;;;;;;6.85;3.72;;;17.20;99.90;;;;;;4977515;28;20027;-57
2022/07/11 01:50:05;;;;;;;8.82;4.10;;;17.20;99.90;;;;;;4976389;28;20026;-57
2022/07/11 01:52:31;;;;;;;7.65;4.30;;;17.20;99.90;;;;;;4976269;28;20391;-57
2022/07/11 01:54:57;;;;;;;5.82;3.72;;;17.20;99.90;;;;;;4977532;28;20030;-56
2022/07/11 01:57:22;;;;;;;4.72;4.18;;;17.20;99.90;;;;;;4961239;28;20155;-56
2022/07/11 01:59:48;;;;;;;5.68;4.20;;;17.20;99.90;;;;;;4957754;28;20039;-57
2022/07/11 02:02:15;;;;;;;6.38;3.72;;;17.20;99.90;;;;;;4956764;28;20474;-57
2022/07/11 02:04:55;;;;;;;7.80;4.20;;;17.20;99.90;;;;;;4958658;28;20057;-55
2022/07/11 02:08:11;;;;;;;4.47;3.95;;;17.20;99.90;;;;;;4956674;28;20027;-57
2022/07/11 02:10:07;;;;;;;6.22;3.88;;;17.20;99.90;;;;;;4957546;28;20027;-58
2022/07/11 02:12:33;;;;;;;6.47;4.20;;;17.10;99.90;;;;;;4956576;28;20070;-57
2022/07/11 02:14:58;;;;;;;6.82;4.57;;;17.10;99.90;;;;;;4956389;28;20078;-59
2022/07/11 02:17:24;;;;;;;4.57;4.18;;;17.10;99.90;;;;;;4957731;28;20104;-59
2022/07/11 02:19:49;;;;;;;6.03;4.78;;;17.10;99.90;;;;;;4957089;28;20031;-59
2022/07/11 02:22:15;;;;;;;6.78;4.47;;;17.10;99.90;;;;;;4957134;28;20481;-59
2022/07/11 02:24:40;;;;;;;8.35;4.28;;;17.10;99.90;;;;;;4956349;28;20030;-59
2022/07/11 02:27:06;;;;;;;8.25;4.75;;;17.10;99.90;;;;;;4956381;28;20108;-57
2022/07/11 02:29:32;;;;;;;8.88;4.88;;;17.10;99.90;;;;;;4957624;28;20031;-58
2022/07/11 02:31:59;;;;;;;7.97;3.78;;;17.10;99.90;;;;;;4955066;28;20034;-56
2022/07/11 02:34:24;;;;;;;5.10;4.60;;;17.10;99.90;;;;;;4956127;28;20110;-56
2022/07/11 02:36:50;;;;;;;8.38;4.32;;;17.10;99.90;;;;;;4956131;28;20050;-57
2022/07/11 02:39:16;;;;;;;5.15;3.53;;;17.10;99.90;;;;;;4955993;28;20383;-57
2022/07/11 02:41:42;;;;;;;4.82;4.43;;;17.10;99.90;;;;;;4955962;28;20023;-54
2022/07/11 02:44:07;;;;;;;4.82;4.35;;;17.10;99.90;;;;;;4955925;28;20019;-57
2022/07/11 02:46:33;;;;;;;7.07;4.70;;;17.10;99.90;;;;;;4956276;28;20027;-56
2022/07/11 02:48:58;;;;;;;4.38;3.97;;;17.10;99.90;;;;;;4955834;28;20035;-57
2022/07/11 02:51:24;;;;;;;6.93;3.92;;;17.10;99.90;;;;;;4956944;28;20027;-53
2022/07/11 02:53:49;;;;;;;6.35;4.60;;;17.20;99.90;;;;;;4956069;28;20067;-55
2022/07/11 02:56:15;;;;;;;9.68;5.18;;;17.10;99.90;;;;;;4955912;28;20028;-54
2022/07/11 02:58:40;;;;;;;7.40;3.92;;;17.10;99.90;;;;;;4955734;28;20471;-53
2022/07/11 03:01:06;;;;;;;11.40;4.60;;;17.10;99.90;;;;;;4957142;28;20042;-56
2022/07/11 03:03:32;;;;;;;6.97;5.07;;;17.10;99.90;;;;;;4955686;28;20034;-57
2022/07/11 03:05:57;;;;;;;7.75;4.82;;;17.10;99.90;;;;;;4957048;28;20030;-57
2022/07/11 03:08:23;;;;;;;7.43;4.38;;;17.10;99.90;;;;;;4956782;28;20426;-57
2022/07/11 03:10:48;;;;;;;5.93;4.00;;;17.10;99.90;;;;;;4956678;28;20082;-57
2022/07/11 03:13:14;;;;;;;24.98;11.13;;;17.10;99.90;;;;;;4955345;28;20082;-57
2022/07/11 03:15:40;;;;;;;11.27;5.82;;;17.10;99.90;;;;;;4955778;28;20027;-57
2022/07/11 03:18:05;;;;;;;6.78;5.18;;;17.10;99.90;;;;;;4956643;28;20023;-55
2022/07/11 03:20:31;;;;;;;10.15;6.35;;;17.10;99.90;;;;;;4956579;28;20078;-55
2022/07/11 03:22:56;;;;;;;9.27;5.60;;;17.10;99.90;;;;;;4956477;28;20050;-57
2022/07/11 03:25:23;;;;;;;7.95;5.38;;;17.10;99.90;;;;;;4956419;28;20035;-57
2022/07/11 03:27:48;;;;;;;9.20;4.70;;;17.10;99.90;;;;;;4956452;28;20027;-57
2022/07/11 03:30:14;;;;;;;7.43;4.70;;;17.00;99.90;;;;;;4955142;28;20030;-57
2022/07/11 03:32:40;;;;;;;7.43;4.32;;;17.00;99.90;;;;;;4955406;28;20019;-57
2022/07/11 03:37:50;;;;;;;9.23;5.45;;;16.90;99.90;;;;;;4956324;29;20029;-57
2022/07/11 03:40:16;;;;;;;7.63;5.22;;;16.90;99.90;;;;;;4955178;28;20118;-55
2022/07/11 03:42:42;;;;;;;6.15;4.03;;;16.80;99.90;;;;;;4954787;28;20030;-55
2022/07/11 03:45:08;;;;;;;4.20;3.80;;;16.80;99.90;;;;;;4954684;28;20019;-57
2022/07/11 03:47:33;;;;;;;8.70;6.00;;;16.70;99.90;;;;;;4956029;28;20034;-57
2022/07/11 03:50:00;;;;;;;6.60;4.80;;;16.80;99.90;;;;;;4954708;28;20023;-57
2022/07/11 03:52:26;;;;;;;7.15;4.82;;;16.70;99.90;;;;;;4955979;28;20034;-56
2022/07/11 03:54:51;;;;;;;5.68;4.55;;;16.70;99.90;;;;;;4955114;28;20027;-57
2022/07/11 03:57:17;;;;;;;10.20;5.70;;;16.70;99.90;;;;;;4956230;28;20027;-57
2022/07/11 03:59:42;;;;;;;9.40;6.22;;;16.70;99.90;;;;;;4969334;28;20114;-57
2022/07/11 04:02:08;;;;;;;7.18;4.85;;;16.70;99.90;;;;;;4973856;28;20470;-57
2022/07/11 04:04:34;;;;;;;9.13;5.25;;;16.70;99.90;;;;;;4975016;28;20029;-57
2022/07/11 04:06:59;;;;;;;8.20;5.22;;;16.70;99.90;;;;;;4973873;28;20027;-57
2022/07/11 04:09:25;;;;;;;6.03;4.28;;;16.70;99.90;;;;;;4974664;28;20038;-56
2022/07/11 04:11:51;;;;;;;10.55;5.15;;;16.70;99.90;;;;;;4973891;28;20053;-51
2022/07/11 04:14:17;;;;;;;12.30;6.55;;;16.70;99.90;;;;;;4975007;28;20062;-51
2022/07/11 04:16:42;;;;;;;4.75;4.30;;;16.70;99.90;;;;;;4974977;28;20065;-55
2022/07/11 04:19:08;;;;;;;10.45;5.05;;;16.70;99.90;;;;;;4973529;28;20026;-56
2022/07/11 04:21:33;;;;;;;6.68;4.82;;;16.70;99.90;;;;;;4973643;28;20393;-52
2022/07/11 04:23:59;;;;;;;6.05;4.38;;;16.70;99.90;;;;;;4974775;28;20038;-53
2022/07/11 04:26:24;;;;;;;6.60;5.15;;;16.70;99.90;;;;;;4975096;28;20027;-53
2022/07/11 04:28:50;;;;;;;8.40;4.88;;;16.70;99.90;;;;;;4973702;28;20034;-57
2022/07/11 04:31:16;;;;;;;5.88;4.47;;;16.70;99.90;;;;;;4974768;28;20489;-55
2022/07/11 04:33:41;;;;;;;10.05;5.30;;;16.80;99.90;;;;;;4973733;28;20026;-57
2022/07/11 04:36:07;;;;;;;6.05;4.80;;;16.80;99.90;;;;;;4974965;28;20027;-57
2022/07/11 04:38:32;;;;;;;8.38;5.25;;;16.90;99.90;;;;;;4973444;28;20022;-57
2022/07/11 04:40:58;;;;;;;7.95;4.90;;;17.00;99.90;;;;;;4974817;28;20033;-57
2022/07/11 04:43:23;;;;;;;8.73;4.95;;;17.10;99.90;;;;;;4973342;28;20469;-57
2022/07/11 04:45:49;;;;;;;8.45;4.70;;;17.20;99.90;;;;;;4974494;28;20031;-57
2022/07/11 04:48:15;;;;;;;8.43;4.70;;;17.40;99.90;;;;;;4973574;28;20041;-57
2022/07/11 04:50:44;;;;;;;4.70;3.63;;;17.80;99.90;;;;;;4974998;28;20033;-57
2022/07/11 04:53:11;;;;;;;4.10;3.63;;;18.20;99.90;;;;;;4973195;28;20054;-57
2022/07/11 04:55:40;;;;;;;9.95;4.20;;;18.50;99.90;;;;;;4974466;28;20493;-58
2022/07/11 04:58:07;;;;;;;9.98;3.67;;;18.70;99.90;;;;;;4978145;28;20035;-56
2022/07/11 05:00:33;;;;;;;9.13;4.43;;;18.80;99.90;;;;;;4976929;28;20030;-57
2022/07/11 05:02:59;;;;;;;5.78;4.05;;;18.90;99.90;;;;;;4978322;28;20031;-57
2022/07/11 05:05:24;;;;;;;5.18;3.20;;;19.00;99.90;;;;;;4978385;28;20054;-58
2022/07/11 05:07:50;;;;;;;8.30;3.85;;;19.30;99.90;;;;;;4978307;28;20030;-60
2022/07/11 05:10:16;;;;;;;6.18;3.65;;;19.60;99.90;;;;;;4977447;28;20497;-60
2022/07/11 05:12:41;;;;;;;8.20;4.03;;;20.00;99.90;;;;;;4978207;28;20019;-55
2022/07/11 05:15:08;;;;;;;4.80;3.17;;;20.50;99.90;;;;;;4977134;28;20031;-59
2022/07/11 05:17:33;;;;;;;8.77;3.50;;;20.90;99.90;;;;;;4978150;28;20034;-58
2022/07/11 05:19:59;;;;;;;5.18;3.22;;;21.30;99.90;;;;;;4976867;28;20027;-58
2022/07/11 05:22:25;;;;;;;4.05;2.67;;;21.60;99.90;;;;;;4976787;28;20023;-60
2022/07/11 05:24:50;;;;;;;3.88;2.85;;;22.10;99.90;;;;;;4977168;28;20030;-60
2022/07/11 05:27:16;;;;;;;4.93;2.80;;;22.40;99.90;;;;;;4976769;28;20367;-59
2022/07/11 05:29:42;;;;;;;8.27;3.33;;;22.70;99.90;;;;;;4977132;28;20110;-59
2022/07/11 05:32:08;;;;;;;6.70;3.20;;;23.00;99.90;;;;;;4976956;28;20026;-59
2022/07/11 05:34:34;;;;;;;7.38;3.47;;;23.40;99.90;;;;;;4977711;28;20027;-60
2022/07/11 05:36:59;;;;;;;5.43;3.08;;;23.70;99.90;;;;;;4976629;28;20544;-60
2022/07/11 05:39:25;;;;;;;6.95;2.95;;;23.90;99.90;;;;;;4977748;28;20470;-60
2022/07/11 05:41:51;;;;;;;5.15;2.10;;;24.30;99.90;;;;;;4976851;28;20030;-60
2022/07/11 05:44:18;;;;;;;2.83;2.38;;;24.60;99.90;;;;;;4976763;28;20054;-60
2022/07/11 05:46:44;;;;;;;4.80;2.67;;;25.00;99.90;;;;;;4976740;28;20085;-60
2022/07/11 05:49:10;;;;;;;3.80;2.17;;;25.30;99.90;;;;;;4977802;28;20055;-58
2022/07/11 05:51:36;;;;;;;7.07;2.83;;;25.50;99.90;;;;;;4976297;28;20023;-60
2022/07/11 05:54:02;;;;;;;6.38;2.97;;;25.90;99.90;;;;;;4976293;28;20094;-60
2022/07/11 05:56:28;;;;;;;7.47;2.58;;;26.30;99.90;;;;;;4976772;28;20026;-60
2022/07/11 05:58:54;;;;;;;3.28;2.30;;;26.60;99.90;;;;;;4973417;28;20031;-61
2022/07/11 06:01:21;;;;;;;4.18;2.40;;;27.10;99.90;;;;;;4957996;28;20494;-58
2022/07/11 06:03:47;;;;;;;5.57;2.15;;;27.50;99.90;;;;;;4958012;28;20043;-60
2022/07/11 06:06:14;;;;;;;3.47;2.45;;;27.90;99.90;;;;;;4957864;28;20112;-60
2022/07/11 06:08:42;;;;;;;3.58;2.00;;;28.30;99.90;;;;;;4956631;28;20023;-61
2022/07/11 06:11:13;;;;;;;3.45;2.00;;;28.70;99.90;;;;;;4956711;28;20031;-60
2022/07/11 06:13:40;;;;;;;5.32;2.25;;;28.80;99.90;;;;;;4956500;28;20065;-60
2022/07/11 06:16:07;;;;;;;3.75;2.10;;;29.10;99.90;;;;;;4958011;28;20024;-61
2022/07/11 06:18:34;;;;;;;2.83;2.05;;;29.50;99.90;;;;;;4957299;28;20027;-61
2022/07/11 06:20:59;;;;;;;5.70;2.35;;;29.90;99.90;;;;;;4957754;28;20027;-61
2022/07/11 06:23:25;;;;;;;2.72;2.00;;;30.10;99.90;;;;;;4956744;28;20031;-61
2022/07/11 06:25:50;;;;;;;3.08;2.03;;;30.50;99.90;;;;;;4956462;28;20030;-61
2022/07/11 06:28:16;;;;;;;4.00;2.10;;;30.60;99.90;;;;;;4957827;28;20081;-60
2022/07/11 06:30:42;;;;;;;4.18;1.75;;;30.90;99.30;;;;;;4957812;28;20039;-61
2022/07/11 06:33:07;;;;;;;8.50;2.10;;;31.30;99.90;;;;;;4956213;28;20031;-61
2022/07/11 06:35:34;;;;;;;4.22;2.28;;;31.40;98.00;;;;;;4957463;28;20030;-60
2022/07/11 06:38:00;;;;;;;4.00;2.75;;;31.40;96.20;;;;;;4957392;28;20023;-61
2022/07/11 06:40:25;;;;;;;3.63;2.25;;;31.90;96.40;;;;;;4957314;28;20022;-61
2022/07/11 06:42:51;;;;;;;5.35;2.10;;;32.40;95.40;;;;;;4956368;28;20118;-58
2022/07/11 06:45:17;;;;;;;3.38;1.90;;;32.70;93.80;;;;;;4956070;28;20098;-61
2022/07/11 06:51:04;;;;;;;2.40;1.92;;;33.50;90.60;;;;;;4957441;29;20493;-61
2022/07/11 06:53:31;;;;;;;6.75;1.98;;;33.00;90.50;;;;;;4957334;29;20023;-61
2022/07/11 06:55:57;;;;;;;2.95;2.65;;;32.90;91.40;;;;;;4957093;28;20022;-61
2022/07/11 06:58:31;;;;;;;3.00;1.65;;;32.70;89.80;;;;;;4957269;28;20027;-61
2022/07/11 07:01:07;;;;;;;1.98;1.63;;;32.50;88.50;;;;;;4956785;28;20038;-61
2022/07/11 07:03:33;;;;;;;3.80;1.80;;;31.90;88.00;;;;;;4955726;28;20114;-61
2022/07/11 07:06:00;;;;;;;1.98;1.40;;;31.30;89.10;;;;;;4957118;28;20031;-61
2022/07/11 07:08:27;;;;;;;2.42;1.80;;;30.90;89.90;;;;;;4956527;28;20367;-60
2022/07/11 07:10:53;;;;;;;3.35;1.75;;;30.30;90.10;;;;;;4955570;28;20024;-60
2022/07/11 07:13:23;;;;;;;4.35;2.60;;;29.60;91.70;;;;;;4956786;28;20031;-60
2022/07/11 07:15:49;;;;;;;3.13;1.60;;;28.90;92.00;;;;;;4962015;28;20049;-60
2022/07/11 07:18:15;;;;;;;1.65;1.40;;;28.40;92.20;;;;;;4974541;28;20389;-60
2022/07/11 07:20:40;;;;;;;1.95;1.58;;;28.00;93.10;;;;;;4975003;28;20023;-60
2022/07/11 07:23:06;;;;;;;2.53;1.50;;;27.60;94.10;;;;;;4975034;28;20106;-60
2022/07/11 07:25:32;;;;;;;1.55;1.23;;;27.30;92.70;;;;;;4976029;28;20484;-60
2022/07/11 07:27:57;;;;;;;1.17;1.08;;;26.90;93.70;;;;;;4968603;28;20023;-60
2022/07/11 07:30:23;;;;;;;1.25;1.00;;;26.50;94.60;;;;;;4956432;28;20054;-61
2022/07/11 07:32:49;;;;;;;2.17;1.40;;;26.20;94.90;;;;;;4956469;28;20031;-60
2022/07/11 07:35:14;;;;;;;3.33;1.15;;;26.10;95.80;;;;;;4955072;29;20114;-60
2022/07/11 07:37:40;;;;;;;1.70;1.20;;;26.20;95.20;;;;;;4955304;28;20371;-57
2022/07/11 07:40:06;;;;;;;1.20;1.10;;;26.10;95.20;;;;;;4956758;28;20027;-59
2022/07/11 07:42:32;;;;;;;1.33;1.20;;;26.50;96.20;;;;;;4956285;29;20051;-59
2022/07/11 07:44:57;;;;;;;1.63;1.20;;;26.70;94.50;;;;;;4954973;29;20085;-59
2022/07/11 07:47:23;;;;;;;1.38;1.10;;;26.90;95.20;;;;;;4954962;29;20032;-60
2022/07/11 07:49:48;;;;;;;2.67;1.40;;;26.90;94.80;;;;;;4954827;28;20031;-60
2022/07/11 07:52:14;;;;;;;2.45;1.33;;;26.90;94.60;;;;;;4954753;28;20027;-60
2022/07/11 07:54:40;;;;;;;9.63;2.22;;;26.80;94.80;;;;;;4954648;29;20028;-60
2022/07/11 07:57:06;;;;;;;4.82;1.80;;;26.70;94.90;;;;;;4954788;29;20023;-60
2022/07/11 07:59:31;;;;;;;2.97;2.00;;;26.30;95.70;;;;;;4955640;28;20059;-58
2022/07/11 08:02:31;;;;;;;3.97;2.00;;;26.10;96.20;;;;;;4954585;29;20019;-60
2022/07/11 08:04:56;;;;;;;6.95;1.88;;;25.70;96.20;;;;;;4955040;29;20114;-60
2022/07/11 08:07:22;;;;;;;2.72;2.10;;;25.60;96.80;;;;;;4955700;28;20113;-59
2022/07/11 08:09:47;;;;;;;4.53;1.88;;;25.40;97.30;;;;;;4955546;28;20031;-60
2022/07/11 08:15:35;;;;;;;2.60;2.22;;;25.20;97.90;;;;;;4955946;29;20110;-58
2022/07/11 08:18:01;;;;;;;2.45;2.05;;;25.10;98.40;;;;;;4955613;28;20023;-60
2022/07/11 08:20:26;;;;;;;3.53;2.38;;;24.90;98.70;;;;;;4955756;28;20070;-59
2022/07/11 08:22:52;;;;;;;4.47;2.30;;;24.80;98.90;;;;;;4970354;28;20027;-61
2022/07/11 08:25:57;;;;;;;3.95;2.13;;;24.70;99.50;;;;;;4973244;28;20023;-59
2022/07/11 08:28:23;;;;;;;2.55;2.25;;;24.70;99.20;;;;;;4960719;28;20023;-59
2022/07/11 08:30:49;;;;;;;4.47;2.30;;;24.60;99.40;;;;;;4954234;28;20174;-64
2022/07/11 08:33:14;;;;;;;3.65;2.03;;;24.70;99.50;;;;;;4954148;28;20031;-60
2022/07/11 08:39:30;;;;;;;4.32;2.13;;;24.70;99.90;;;;;;4955099;29;20046;-63
2022/07/11 08:41:57;;;;;;;2.95;1.90;;;24.90;99.60;;;;;;4972809;28;20090;-61
2022/07/11 08:44:24;;;;;;;2.30;1.90;;;25.00;99.40;;;;;;4973589;28;20031;-61
2022/07/11 08:46:52;;;;;;;1.95;1.75;;;25.00;99.40;;;;;;4973481;28;20125;-62
2022/07/11 08:49:19;;;;;;;3.63;2.05;;;25.10;99.70;;;;;;4973130;28;20121;-62
2022/07/11 08:51:47;;;;;;;2.08;1.67;;;24.70;99.80;;;;;;4974400;28;20039;-62
2022/07/11 08:54:12;;;;;;;3.60;1.83;;;24.50;99.90;;;;;;4973415;28;20118;-63
2022/07/11 08:56:38;;;;;;;3.53;1.70;;;24.60;99.90;;;;;;4973492;28;20115;-63
2022/07/11 08:59:04;;;;;;;6.53;1.58;;;24.60;99.90;;;;;;4972861;28;20030;-63
2022/07/11 09:01:32;;;;;;;1.90;1.52;;;24.60;99.90;;;;;;4973169;28;20114;-63
2022/07/11 09:03:59;;;;;;;10.02;3.88;;;24.40;99.90;;;;;;4974344;28;20501;-64
2022/07/11 09:06:24;;;;;;;38.78;13.55;;;24.70;99.90;;;;;;4973027;28;20037;-64
2022/07/11 09:08:50;;;;;;;11.85;4.72;;;26.00;99.90;;;;;;4972975;28;20027;-65
2022/07/11 09:11:16;;;;;;;2.95;1.83;;;28.00;98.10;;;;;;4974209;28;20031;-64
2022/07/11 09:13:42;;;;;;;2.72;1.50;;;29.70;95.80;;;;;;4973237;28;20054;-63
2022/07/11 09:16:08;;;;;;;3.17;1.70;;;31.40;92.80;;;;;;4974287;28;20023;-64
2022/07/11 09:18:35;;;;;;;2.15;1.48;;;31.80;91.50;;;;;;4972973;28;20023;-64
2022/07/11 09:26:46;;;;;;;4.15;1.60;;;29.90;91.60;;;;;;4974201;28;20524;-61
2022/07/11 09:29:12;;;;;;;2.03;1.83;;;29.10;92.30;;;;;;4973167;28;20027;-62
2022/07/11 09:31:40;;;;;;;2.80;1.35;;;28.70;92.70;;;;;;4972973;28;20029;-62
2022/07/11 09:34:08;;;;;;;1.30;1.00;;;28.90;92.50;;;;;;4972740;28;20030;-62
2022/07/11 09:36:35;;;;;;;1.42;1.00;;;29.90;91.20;;;;;;4973137;28;20027;-61
2022/07/11 09:42:24;;;;;;;1.70;1.38;;;29.50;90.30;;;;;;4976556;28;20049;-62
2022/07/11 09:44:49;;;;;;;2.25;1.98;;;28.50;92.00;;;;;;4976755;28;20027;-59
2022/07/11 09:47:15;;;;;;;4.00;1.67;;;28.70;92.50;;;;;;4977540;28;20027;-62
2022/07/11 09:49:41;;;;;;;1.50;1.40;;;28.60;92.50;;;;;;4976164;28;20374;-63
2022/07/11 09:52:13;;;;;;;2.40;1.60;;;28.50;92.70;;;;;;4976578;28;20054;-62
2022/07/11 10:01:23;;;;;;;2.78;1.40;;;29.00;92.40;;;;;;4977476;28;20050;-61
2022/07/11 10:03:49;;;;;;;3.28;1.45;;;28.70;92.70;;;;;;4977492;28;20026;-60
2022/07/11 10:06:15;;;;;;;1.88;1.75;;;28.30;92.90;;;;;;4975874;28;20023;-60
2022/07/11 10:08:41;;;;;;;2.75;1.90;;;28.10;92.80;;;;;;4975806;28;20041;-59
2022/07/11 10:11:06;;;;;;;2.17;1.52;;;28.00;93.10;;;;;;4977184;28;20072;-61
2022/07/11 10:13:32;;;;;;;3.88;1.70;;;27.60;93.60;;;;;;4975799;28;20038;-59
2022/07/11 10:16:03;;;;;;;2.35;1.40;;;27.30;93.80;;;;;;4977228;28;20030;-61
2022/07/11 10:18:41;;;;;;;2.38;1.45;;;27.00;94.10;;;;;;4975761;28;20022;-61
2022/07/11 10:21:17;;;;;;;2.05;1.55;;;26.70;94.50;;;;;;4975765;28;20034;-61
2022/07/11 10:23:48;;;;;;;3.22;2.25;;;26.40;95.00;;;;;;4976878;28;20031;-61
2022/07/11 10:26:42;;;;;;;3.45;2.40;;;26.10;95.80;;;;;;4976845;28;20470;-61
2022/07/11 10:29:37;;;;;;;3.90;2.45;;;25.90;97.40;;;;;;4976193;28;20063;-60
2022/07/11 10:32:07;;;;;;;5.18;2.35;;;25.70;97.80;;;;;;4973015;28;20031;-60
2022/07/11 10:34:32;;;;;;;3.65;2.10;;;25.50;97.90;;;;;;4975484;28;20035;-58
2022/07/11 10:37:06;;;;;;;3.75;2.00;;;25.50;98.00;;;;;;4976627;28;20158;-59
2022/07/11 10:39:34;;;;;;;3.15;2.03;;;25.40;98.00;;;;;;4975410;28;20034;-59
2022/07/11 10:42:03;;;;;;;4.65;2.35;;;25.50;97.80;;;;;;4976535;28;20497;-61
2022/07/11 10:44:48;;;;;;;2.38;2.05;;;25.60;98.10;;;;;;4976422;28;20033;-61
2022/07/11 10:47:44;;;;;;;2.67;2.00;;;25.70;98.20;;;;;;4975245;28;20121;-61
2022/07/11 10:50:19;;;;;;;4.60;2.08;;;25.80;97.90;;;;;;4975094;28;20122;-59
2022/07/11 10:52:49;;;;;;;4.28;1.80;;;25.70;98.30;;;;;;4975762;28;20111;-61
2022/07/11 10:55:29;;;;;;;4.18;2.70;;;25.70;98.20;;;;;;4975986;28;20030;-59
2022/07/11 10:58:07;;;;;;;2.58;1.95;;;25.70;98.30;;;;;;4975172;28;20023;-61
2022/07/11 11:00:33;;;;;;;2.60;1.40;;;25.70;97.90;;;;;;4975045;28;20494;-61
2022/07/11 11:03:07;;;;;;;2.95;1.70;;;25.70;97.90;;;;;;4976201;28;20033;-62
2022/07/11 11:05:50;;;;;;;2.35;1.60;;;25.80;97.60;;;;;;4976159;28;20054;-58
2022/07/11 11:08:36;;;;;;;2.00;1.60;;;26.00;97.60;;;;;;4976070;28;20031;-60
2022/07/11 11:11:22;;;;;;;1.98;1.77;;;26.30;97.50;;;;;;4974697;28;20367;-61
2022/07/11 11:14:25;;;;;;;2.10;1.90;;;26.50;97.20;;;;;;4975825;28;20371;-62
2022/07/11 11:16:51;;;;;;;11.77;1.90;;;26.60;97.30;;;;;;4974946;28;20027;-60
2022/07/11 11:19:48;;;;;;;3.50;1.60;;;26.70;96.60;;;;;;4975736;28;20500;-62
2022/07/11 11:22:18;;;;;;;1.58;1.48;;;26.60;96.70;;;;;;4974575;28;20081;-62
2022/07/11 11:24:44;;;;;;;1.73;1.30;;;26.60;96.70;;;;;;4975682;28;20030;-63
2022/07/11 11:27:19;;;;;;;1.27;1.17;;;26.50;96.90;;;;;;4974760;28;20118;-64
2022/07/11 11:29:45;;;;;;;4.82;1.40;;;26.50;97.20;;;;;;4976034;28;20027;-64
2022/07/11 11:32:11;;;;;;;2.25;1.40;;;26.60;96.80;;;;;;4974373;28;20038;-63
2022/07/11 11:34:40;;;;;;;2.13;1.25;;;26.60;96.60;;;;;;4974203;28;20086;-63
2022/07/11 11:37:15;;;;;;;1.75;1.30;;;26.50;97.00;;;;;;4975489;28;20027;-64
2022/07/11 11:39:41;;;;;;;1.63;1.40;;;26.60;97.30;;;;;;4974265;28;20019;-64
2022/07/11 11:42:17;;;;;;;1.13;1.10;;;26.70;97.00;;;;;;4975533;28;20501;-64
2022/07/11 11:44:49;;;;;;;2.92;1.98;;;26.80;96.90;;;;;;4975320;28;20023;-65
2022/07/11 11:47:15;;;;;;;1.60;1.30;;;26.90;96.40;;;;;;4975328;28;20035;-63
2022/07/11 11:49:42;;;;;;;2.20;1.40;;;26.70;97.00;;;;;;4975271;28;20033;-62
2022/07/11 11:52:08;;;;;;;4.28;1.20;;;26.70;96.70;;;;;;4975241;28;20150;-64
2022/07/11 11:54:34;;;;;;;2.42;1.13;;;26.70;96.80;;;;;;4973879;28;20121;-64
2022/07/11 11:57:10;;;;;;;1.40;1.30;;;26.60;96.90;;;;;;4974265;28;20031;-64
2022/07/11 11:59:36;;;;;;;3.00;1.38;;;26.10;96.40;;;;;;4975310;28;20034;-63
2022/07/11 12:02:02;;;;;;;3.92;2.90;;;26.00;97.60;;;;;;4973554;28;20062;-64
2022/07/11 12:04:34;;;;;;;2.17;1.20;;;26.10;97.30;;;;;;4974754;28;20100;-64
2022/07/11 12:07:01;;;;;;;1.98;1.30;;;26.10;96.90;;;;;;4976687;28;20041;-63
2022/07/11 12:09:46;;;;;;;1.17;1.08;;;26.10;96.90;;;;;;4973269;28;20023;-63
2022/07/11 12:14:56;;;;;;;1.40;1.08;;;26.00;97.40;;;;;;4974804;28;20037;-63
2022/07/11 12:17:26;;;;;;;1.10;1.08;;;26.10;97.40;;;;;;4974977;28;20022;-63
2022/07/11 12:19:52;;;;;;;2.20;1.25;;;26.10;97.30;;;;;;4974823;28;20019;-63
2022/07/11 12:22:17;;;;;;;1.25;1.10;;;26.00;97.60;;;;;;4974580;28;20026;-63
2022/07/11 12:24:53;;;;;;;2.05;1.10;;;26.10;97.30;;;;;;4955451;28;20118;-64
2022/07/11 12:27:24;;;;;;;1.45;1.25;;;26.20;97.10;;;;;;4987805;28;20362;-63
2022/07/11 12:29:53;;;;;;;1.20;1.10;;;26.20;97.00;;;;;;4992982;28;20034;-63
2022/07/11 12:32:21;;;;;;;1.10;0.95;;;26.20;97.30;;;;;;4994105;28;20038;-63
2022/07/11 12:34:49;;;;;;;2.38;1.00;;;26.20;97.50;;;;;;4993206;28;20030;-60
2022/07/11 12:37:18;;;;;;;1.23;0.88;;;25.40;97.20;;;;;;4994059;28;20109;-62
2022/07/11 12:40:00;;;;;;;2.15;1.15;;;25.20;97.80;;;;;;4993925;28;20541;-63
2022/07/11 12:42:33;;;;;;;1.10;0.80;;;25.40;97.90;;;;;;4992818;28;20137;-63
2022/07/11 12:45:09;;;;;;;1.33;1.00;;;25.60;97.60;;;;;;4992647;28;20027;-63
2022/07/11 12:47:38;;;;;;;3.20;1.08;;;25.70;97.60;;;;;;4992982;28;20033;-61
2022/07/11 12:50:24;;;;;;;1.10;1.00;;;25.80;97.30;;;;;;4993812;28;20046;-63
2022/07/11 12:52:52;;;;;;;2.13;1.27;;;25.90;97.40;;;;;;4993874;28;20022;-63
2022/07/11 12:55:30;;;;;;;0.98;0.90;;;26.00;97.10;;;;;;4992519;28;20026;-62
2022/07/11 12:58:16;;;;;;;0.73;0.73;;;26.10;97.10;;;;;;4993812;28;20030;-63
2022/07/11 13:01:00;;;;;;;1.13;0.98;;;26.30;97.50;;;;;;4992500;28;20037;-63
2022/07/11 13:04:08;;;;;;;2.05;1.13;;;26.50;96.90;;;;;;4993803;28;20053;-61
2022/07/11 13:09:55;;;;;;;2.40;1.08;;;26.90;96.00;;;;;;4993926;28;20029;-63
2022/07/11 13:13:06;;;;;;;3.70;1.55;;;27.00;95.80;;;;;;4992666;28;20026;-64
2022/07/11 13:15:31;;;;;;;2.10;0.90;;;27.00;95.90;;;;;;4992855;28;20070;-63
2022/07/11 13:17:57;;;;;;;2.17;0.80;;;26.60;95.70;;;;;;4995774;28;20057;-63
2022/07/11 13:21:18;;;;;;;2.17;0.63;;;26.20;96.10;;;;;;4997415;28;20142;-63
2022/07/11 13:23:44;;;;;;;1.15;0.80;;;26.10;96.50;;;;;;4997733;28;20028;-63
2022/07/11 13:26:11;;;;;;;2.28;1.10;;;26.00;96.40;;;;;;4996228;28;20101;-62
2022/07/11 13:28:39;;;;;;;0.80;0.80;;;25.80;96.80;;;;;;4996144;28;20038;-63